createdAt,value
2023-09-03T00:00:05.397Z,19.75
2023-09-03T00:02:38.708Z,19.00
2023-09-03T00:05:07.542Z,20.40
2023-09-03T00:07:35.452Z,21.17
2023-09-03T00:10:03.377Z,19.75
2023-09-03T00:12:31.420Z,21.80
2023-09-03T00:15:00.887Z,22.13
2023-09-03T00:17:29.832Z,22.65
2023-09-03T00:19:57.916Z,23.05
2023-09-03T00:22:25.846Z,21.73
2023-09-03T00:24:53.808Z,19.88
2023-09-03T00:27:21.691Z,24.08
2023-09-03T00:29:49.600Z,25.63
2023-09-03T00:32:18.843Z,24.35
2023-09-03T00:34:47.093Z,19.60
2023-09-03T00:37:14.982Z,19.73
2023-09-03T00:39:42.976Z,20.95
2023-09-03T00:42:11.001Z,22.98
2023-09-03T00:44:38.954Z,20.95
2023-09-03T00:47:07.078Z,21.95
2023-09-03T00:49:44.118Z,21.38
2023-09-03T00:52:13.058Z,20.02
2023-09-03T00:54:41.814Z,20.73
2023-09-03T00:57:09.816Z,22.30
2023-09-03T00:59:37.930Z,23.90
2023-09-03T01:02:06.141Z,23.58
2023-09-03T01:04:34.123Z,23.23
2023-09-03T01:07:03.480Z,22.17
2023-09-03T01:09:31.495Z,22.90
2023-09-03T01:12:08.708Z,24.20
2023-09-03T01:14:44.744Z,25.02
2023-09-03T01:17:18.280Z,20.40
2023-09-03T01:19:58.914Z,18.75
2023-09-03T01:22:39.859Z,17.92
2023-09-03T01:25:27.957Z,19.27
2023-09-03T01:28:22.955Z,21.67
2023-09-03T01:30:53.057Z,19.20
2023-09-03T01:33:21.519Z,21.40
2023-09-03T01:35:51.832Z,19.63
2023-09-03T01:38:19.976Z,18.98
2023-09-03T01:40:49.301Z,20.45
2023-09-03T01:43:17.347Z,22.98
2023-09-03T01:45:55.751Z,20.08
2023-09-03T01:48:35.103Z,21.50
2023-09-03T01:51:11.935Z,20.40
2023-09-03T01:53:48.102Z,20.65
2023-09-03T01:56:16.568Z,22.40
2023-09-03T01:58:48.975Z,22.80
2023-09-03T02:01:19.366Z,21.73
2023-09-03T02:03:49.508Z,22.67
2023-09-03T02:06:17.373Z,22.25
2023-09-03T02:08:45.260Z,21.90
2023-09-03T02:11:13.155Z,20.63
2023-09-03T02:13:41.554Z,23.35
2023-09-03T02:16:09.488Z,22.00
2023-09-03T02:18:38.685Z,20.42
2023-09-03T02:21:06.623Z,23.55
2023-09-03T02:23:34.488Z,22.48
2023-09-03T02:26:03.761Z,21.33
2023-09-03T02:28:32.167Z,21.67
2023-09-03T02:31:00.047Z,20.00
2023-09-03T02:33:29.057Z,22.52
2023-09-03T02:35:58.303Z,23.55
2023-09-03T02:38:26.265Z,23.50
2023-09-03T02:40:54.281Z,22.30
2023-09-03T02:43:22.194Z,22.33
2023-09-03T02:45:50.095Z,20.40
2023-09-03T02:48:18.267Z,24.25
2023-09-03T02:50:46.280Z,23.42
2023-09-03T02:53:15.536Z,20.15
2023-09-03T02:55:43.388Z,19.63
2023-09-03T02:58:11.208Z,21.67
2023-09-03T03:00:39.252Z,21.73
2023-09-03T03:03:07.156Z,19.92
2023-09-03T03:05:35.175Z,29.15
2023-09-03T03:08:04.249Z,19.75
2023-09-03T03:10:34.248Z,25.00
2023-09-03T03:13:02.296Z,26.10
2023-09-03T03:15:30.179Z,33.67
2023-09-03T03:17:58.490Z,53.50
2023-09-03T03:20:26.345Z,38.17
2023-09-03T03:22:54.189Z,61.65
2023-09-03T03:25:23.214Z,57.28
2023-09-03T03:27:52.523Z,62.55
2023-09-03T03:30:20.389Z,40.92
2023-09-03T03:32:48.939Z,76.28
2023-09-03T03:35:18.170Z,44.25
2023-09-03T03:37:46.014Z,39.90
2023-09-03T03:40:14.173Z,52.28
2023-09-03T03:42:42.017Z,45.78
2023-09-03T03:45:12.091Z,37.92
2023-09-03T03:47:40.076Z,121.72
2023-09-03T03:50:08.553Z,33.33
2023-09-03T03:52:38.032Z,36.85
2023-09-03T03:55:07.112Z,53.83
2023-09-03T03:57:34.913Z,45.03
2023-09-03T04:00:02.893Z,51.67
2023-09-03T04:02:41.541Z,33.00
2023-09-03T04:05:10.052Z,38.28
2023-09-03T04:07:37.868Z,53.95
2023-09-03T04:10:06.610Z,106.65
2023-09-03T04:12:34.589Z,90.32
2023-09-03T04:15:02.904Z,70.97
2023-09-03T04:17:31.726Z,31.63
2023-09-03T04:20:00.990Z,37.03
2023-09-03T04:22:28.879Z,40.42
2023-09-03T04:24:57.870Z,26.23
2023-09-03T04:27:25.976Z,62.28
2023-09-03T04:29:54.017Z,65.35
2023-09-03T04:32:21.938Z,39.67
2023-09-03T04:34:50.119Z,120.30
2023-09-03T04:37:19.405Z,27.15
2023-09-03T04:39:47.460Z,135.77
2023-09-03T04:42:15.314Z,127.93
2023-09-03T04:44:43.805Z,261.80
2023-09-03T04:47:11.813Z,123.15
2023-09-03T04:49:39.666Z,193.10
2023-09-03T04:52:08.083Z,60.15
2023-09-03T04:54:37.305Z,76.60
2023-09-03T04:57:05.411Z,80.88
2023-09-03T04:59:33.312Z,81.45
2023-09-03T05:02:01.412Z,33.38
2023-09-03T05:04:29.396Z,47.67
2023-09-03T05:06:57.708Z,150.15
2023-09-03T05:09:26.358Z,310.58
2023-09-03T05:11:55.643Z,311.75
2023-09-03T05:14:24.481Z,339.00
2023-09-03T05:16:52.287Z,93.88
2023-09-03T05:19:20.542Z,242.15
2023-09-03T05:21:49.169Z,106.65
2023-09-03T05:24:17.920Z,133.75
2023-09-03T05:26:46.533Z,150.95
2023-09-03T05:29:15.824Z,253.32
2023-09-03T05:31:43.846Z,428.38
2023-09-03T05:34:11.701Z,201.73
2023-09-03T05:36:40.013Z,463.23
2023-09-03T05:39:07.868Z,594.38
2023-09-03T05:41:35.719Z,548.88
2023-09-03T05:44:07.420Z,326.35
2023-09-03T05:46:37.666Z,375.60
2023-09-03T05:49:05.829Z,189.15
2023-09-03T05:51:34.765Z,324.10
2023-09-03T05:54:03.455Z,486.42
2023-09-03T05:56:31.996Z,146.85
2023-09-03T05:59:06.453Z,286.27
2023-09-03T06:01:35.679Z,57.67
2023-09-03T06:04:07.209Z,106.63
2023-09-03T06:06:39.545Z,161.77
2023-09-03T06:09:08.495Z,230.35
2023-09-03T06:11:36.666Z,172.35
2023-09-03T06:14:04.804Z,219.80
2023-09-03T06:16:32.735Z,243.50
2023-09-03T06:19:00.677Z,92.10
2023-09-03T06:21:30.516Z,72.53
2023-09-03T06:23:58.398Z,83.03
2023-09-03T06:26:26.337Z,135.70
2023-09-03T06:28:54.189Z,59.45
2023-09-03T06:31:22.128Z,40.53
2023-09-03T06:33:50.094Z,44.28
2023-09-03T06:36:18.036Z,42.28
2023-09-03T06:38:47.294Z,65.95
2023-09-03T06:41:15.157Z,30.25
2023-09-03T06:43:43.342Z,88.20
2023-09-03T06:46:11.252Z,51.17
2023-09-03T06:48:39.100Z,87.55
2023-09-03T06:51:07.187Z,24.50
2023-09-03T06:53:35.030Z,39.38
2023-09-03T06:56:04.551Z,28.13
2023-09-03T06:58:32.402Z,28.10
2023-09-03T07:01:00.256Z,43.80
2023-09-03T07:03:28.153Z,47.58
2023-09-03T07:05:56.113Z,26.05
2023-09-03T07:08:24.894Z,33.20
2023-09-03T07:10:52.855Z,30.08
2023-09-03T07:13:22.175Z,43.45
2023-09-03T07:15:50.018Z,103.95
2023-09-03T07:18:17.875Z,68.13
2023-09-03T07:20:45.721Z,35.20
2023-09-03T07:23:15.943Z,50.70
2023-09-03T07:25:43.987Z,54.63
2023-09-03T07:28:11.844Z,28.90
2023-09-03T07:30:42.439Z,37.20
2023-09-03T07:33:10.349Z,25.70
2023-09-03T07:35:38.227Z,26.65
2023-09-03T07:38:06.207Z,26.98
2023-09-03T07:40:34.123Z,28.30
2023-09-03T07:43:01.985Z,27.92
2023-09-03T07:45:29.839Z,26.60
2023-09-03T07:47:59.644Z,25.60
2023-09-03T07:50:29.044Z,24.83
2023-09-03T07:52:56.887Z,27.67
2023-09-03T07:55:24.854Z,27.05
2023-09-03T07:57:52.684Z,29.20
2023-09-03T08:00:20.779Z,25.25
2023-09-03T08:02:48.655Z,28.58
2023-09-03T08:05:18.666Z,28.17
2023-09-03T08:07:46.918Z,30.38
2023-09-03T08:10:14.805Z,28.48
2023-09-03T08:12:42.815Z,26.65
2023-09-03T08:15:12.399Z,30.67
2023-09-03T08:17:40.263Z,28.70
2023-09-03T08:20:09.519Z,28.60
2023-09-03T08:22:38.992Z,27.45
2023-09-03T08:25:08.200Z,28.35
2023-09-03T08:27:35.267Z,28.67
2023-09-03T08:30:03.153Z,27.67
2023-09-03T08:32:31.288Z,27.55
2023-09-03T08:34:59.127Z,26.40
2023-09-03T08:37:28.286Z,27.05
2023-09-03T08:39:57.570Z,25.17
2023-09-03T08:42:26.894Z,25.63
2023-09-03T08:45:00.053Z,28.33
2023-09-03T08:47:27.872Z,27.13
2023-09-03T08:49:56.160Z,25.92
2023-09-03T08:52:24.474Z,27.10
2023-09-03T08:54:53.767Z,25.38
2023-09-03T08:57:29.241Z,27.02
2023-09-03T08:59:57.706Z,26.30
2023-09-03T09:02:28.676Z,26.08
2023-09-03T09:04:56.575Z,26.27
2023-09-03T09:07:26.431Z,24.92
2023-09-03T09:09:59.679Z,24.23
2023-09-03T09:12:35.583Z,24.95
2023-09-03T09:15:05.680Z,24.77
2023-09-03T09:17:38.384Z,24.75
2023-09-03T09:20:07.321Z,24.77
2023-09-03T09:22:41.149Z,24.55
2023-09-03T09:25:10.594Z,23.35
2023-09-03T09:27:42.016Z,23.75
2023-09-03T09:30:13.572Z,23.95
2023-09-03T09:32:42.882Z,23.00
2023-09-03T09:35:11.343Z,25.77
2023-09-03T09:37:40.343Z,23.20
2023-09-03T09:40:09.585Z,23.35
2023-09-03T09:42:54.881Z,23.08
2023-09-03T09:45:22.885Z,24.10
2023-09-03T09:48:08.328Z,23.30
2023-09-03T09:50:37.658Z,23.05
2023-09-03T09:53:06.700Z,24.08
2023-09-03T09:55:34.636Z,22.27
2023-09-03T09:58:04.081Z,22.88
2023-09-03T10:00:35.987Z,20.70
2023-09-03T10:03:06.041Z,22.77
2023-09-03T10:05:36.131Z,21.75
2023-09-03T10:08:05.234Z,20.85
2023-09-03T10:10:33.471Z,23.50
2023-09-03T10:13:03.618Z,22.20
2023-09-03T10:15:33.312Z,20.73
2023-09-03T10:18:04.479Z,21.67
2023-09-03T10:20:33.212Z,21.40
2023-09-03T10:23:03.580Z,21.33
2023-09-03T10:25:34.804Z,18.80
2023-09-03T10:28:06.706Z,20.48
2023-09-03T10:30:39.955Z,18.95
2023-09-03T10:33:10.149Z,19.77
2023-09-03T10:35:38.431Z,18.33
2023-09-03T10:38:07.526Z,18.83
2023-09-03T10:40:35.496Z,17.65
2023-09-03T10:43:27.930Z,17.67
2023-09-03T10:46:06.996Z,17.58
2023-09-03T10:48:36.826Z,17.30
2023-09-03T10:51:05.167Z,15.80
2023-09-03T10:53:40.402Z,14.20
2023-09-03T10:56:13.563Z,17.45
2023-09-03T10:58:55.486Z,14.95
2023-09-03T11:01:27.750Z,13.45
2023-09-03T11:03:56.355Z,13.45
2023-09-03T11:06:25.323Z,12.88
2023-09-03T11:09:23.479Z,19.90
2023-09-03T11:11:51.404Z,13.05
2023-09-03T11:14:19.455Z,10.80
2023-09-03T11:16:48.663Z,10.38
2023-09-03T11:19:16.528Z,9.32
2023-09-03T11:21:44.460Z,9.35
2023-09-03T11:24:16.619Z,9.65
2023-09-03T11:26:45.233Z,10.98
2023-09-03T11:29:20.638Z,12.38
2023-09-03T11:31:50.827Z,11.20
2023-09-03T11:34:21.423Z,10.77
2023-09-03T11:36:51.334Z,9.90
2023-09-03T11:39:19.718Z,9.80
2023-09-03T11:41:48.266Z,8.18
2023-09-03T11:44:16.708Z,8.45
2023-09-03T11:46:59.485Z,8.40
2023-09-03T11:49:27.784Z,8.38
2023-09-03T11:51:56.061Z,8.20
2023-09-03T11:54:24.723Z,6.35
2023-09-03T11:56:53.285Z,5.35
2023-09-03T11:59:21.512Z,3.78
2023-09-03T12:01:49.662Z,4.15
2023-09-03T12:04:19.106Z,3.92
2023-09-03T12:06:47.115Z,5.40
2023-09-03T12:09:15.534Z,5.20
2023-09-03T12:11:43.388Z,5.63
2023-09-03T12:14:11.568Z,6.20
2023-09-03T12:16:47.544Z,5.22
2023-09-03T12:19:15.467Z,4.90
2023-09-03T12:21:44.748Z,3.90
2023-09-03T12:24:12.668Z,3.72
2023-09-03T12:26:40.564Z,3.85
2023-09-03T12:29:21.095Z,3.95
2023-09-03T12:31:49.039Z,3.35
2023-09-03T12:34:17.662Z,3.33
2023-09-03T12:36:57.980Z,4.20
2023-09-03T12:39:30.524Z,2.70
2023-09-03T12:41:58.760Z,2.53
2023-09-03T12:44:27.976Z,2.00
2023-09-03T12:46:56.221Z,2.30
2023-09-03T12:49:24.410Z,2.25
2023-09-03T12:51:52.344Z,2.20
2023-09-03T12:54:21.773Z,2.65
2023-09-03T12:56:50.776Z,2.47
2023-09-03T12:59:18.854Z,2.65
2023-09-03T13:01:46.784Z,2.40
2023-09-03T13:04:16.091Z,2.47
2023-09-03T13:06:44.291Z,2.05
2023-09-03T13:09:13.220Z,2.28
2023-09-03T13:11:42.485Z,2.58
2023-09-03T13:14:10.327Z,2.63
2023-09-03T13:16:38.289Z,2.92
2023-09-03T13:19:06.215Z,3.28
2023-09-03T13:21:37.316Z,6.05
2023-09-03T13:24:06.897Z,3.85
2023-09-03T13:26:34.761Z,4.07
2023-09-03T13:29:03.993Z,3.75
2023-09-03T13:31:31.856Z,4.25
2023-09-03T13:33:59.762Z,3.70
2023-09-03T13:36:27.968Z,3.92
2023-09-03T13:38:55.844Z,3.92
2023-09-03T13:41:24.182Z,5.32
2023-09-03T13:43:52.287Z,3.83
2023-09-03T13:46:23.042Z,4.85
2023-09-03T13:48:51.080Z,4.65
2023-09-03T13:51:18.902Z,4.20
2023-09-03T13:53:47.929Z,4.05
2023-09-03T13:56:15.785Z,3.67
2023-09-03T13:58:43.637Z,3.50
2023-09-03T14:01:11.703Z,3.10
2023-09-03T14:03:40.990Z,3.55
2023-09-03T14:06:10.457Z,3.20
2023-09-03T14:08:39.114Z,3.53
2023-09-03T14:11:07.104Z,3.72
2023-09-03T14:13:34.983Z,3.15
2023-09-03T14:16:02.971Z,3.28
2023-09-03T14:18:30.833Z,3.13
2023-09-03T14:21:00.299Z,3.10
2023-09-03T14:23:28.121Z,2.60
2023-09-03T14:25:55.997Z,3.03
2023-09-03T14:28:24.239Z,2.53
2023-09-03T14:30:52.846Z,3.42
2023-09-03T14:33:23.554Z,3.13
2023-09-03T14:35:51.947Z,2.78
2023-09-03T14:38:21.505Z,3.22
2023-09-03T14:40:53.106Z,3.08
2023-09-03T14:43:21.490Z,2.70
2023-09-03T14:45:49.527Z,3.97
2023-09-03T14:48:17.522Z,3.28
2023-09-03T14:50:45.618Z,3.45
2023-09-03T14:53:13.569Z,4.65
2023-09-03T14:55:46.373Z,3.45
2023-09-03T14:58:14.669Z,3.88
2023-09-03T15:00:42.704Z,3.58
2023-09-03T15:03:10.778Z,3.72
2023-09-03T15:05:38.824Z,3.83
2023-09-03T15:08:07.017Z,4.22
2023-09-03T15:10:34.951Z,4.47
2023-09-03T15:13:04.356Z,4.00
2023-09-03T15:15:32.423Z,4.65
2023-09-03T15:18:00.557Z,4.63
2023-09-03T15:20:28.856Z,4.68
2023-09-03T15:22:56.821Z,4.57
2023-09-03T15:25:24.777Z,5.00
2023-09-03T15:27:52.721Z,5.28
2023-09-03T15:30:24.029Z,5.80
2023-09-03T15:32:53.422Z,5.25
2023-09-03T15:35:22.535Z,5.13
2023-09-03T15:37:50.469Z,5.50
2023-09-03T15:40:18.570Z,7.65
2023-09-03T15:42:46.668Z,5.70
2023-09-03T15:45:14.729Z,5.03
2023-09-03T15:47:44.095Z,4.53
2023-09-03T15:50:12.146Z,5.07
2023-09-03T15:52:40.108Z,5.55
2023-09-03T15:55:08.564Z,6.03
2023-09-03T15:57:36.970Z,5.35
2023-09-03T16:00:09.992Z,4.95
2023-09-03T16:02:37.960Z,5.80
2023-09-03T16:05:08.141Z,4.95
2023-09-03T16:07:36.130Z,4.82
2023-09-03T16:10:04.638Z,4.25
2023-09-03T16:12:35.617Z,4.22
2023-09-03T16:15:05.142Z,4.80
2023-09-03T16:17:33.794Z,5.28
2023-09-03T16:20:01.992Z,4.57
2023-09-03T16:22:31.404Z,4.75
2023-09-03T16:24:59.373Z,4.57
2023-09-03T16:27:27.524Z,4.68
2023-09-03T16:29:55.583Z,4.65
2023-09-03T16:32:23.610Z,4.30
2023-09-03T16:34:51.901Z,4.40
2023-09-03T16:37:22.438Z,6.10
2023-09-03T16:39:53.224Z,4.25
2023-09-03T16:42:21.195Z,4.05
2023-09-03T16:44:50.626Z,5.75
2023-09-03T16:47:18.638Z,4.00
2023-09-03T16:49:49.184Z,3.97
2023-09-03T16:52:17.094Z,3.78
2023-09-03T16:54:45.057Z,4.00
2023-09-03T16:57:14.515Z,3.88
2023-09-03T16:59:42.927Z,5.97
2023-09-03T17:02:13.499Z,4.43
2023-09-03T17:04:43.257Z,3.75
2023-09-03T17:07:11.767Z,2.80
2023-09-03T17:09:39.848Z,4.03
2023-09-03T17:12:08.365Z,3.45
2023-09-03T17:14:37.676Z,3.25
2023-09-03T17:17:06.828Z,3.75
2023-09-03T17:19:36.286Z,3.65
2023-09-03T17:22:04.688Z,3.55
2023-09-03T17:24:32.879Z,3.70
2023-09-03T17:27:01.141Z,3.75
2023-09-03T17:29:30.333Z,2.97
2023-09-03T17:32:00.115Z,3.40
2023-09-03T17:34:28.693Z,3.20
2023-09-03T17:36:56.701Z,4.47
2023-09-03T17:39:25.052Z,4.10
2023-09-03T17:41:52.983Z,3.75
2023-09-03T17:44:20.924Z,4.57
2023-09-03T17:46:48.943Z,5.07
2023-09-03T17:49:18.302Z,4.30
2023-09-03T17:51:46.386Z,3.13
2023-09-03T17:54:14.401Z,3.58
2023-09-03T17:56:42.425Z,2.92
2023-09-03T17:59:10.444Z,4.88
2023-09-03T18:01:38.511Z,3.70
2023-09-03T18:04:06.858Z,3.40
2023-09-03T18:06:36.241Z,4.07
2023-09-03T18:09:04.283Z,4.70
2023-09-03T18:11:33.060Z,3.70
2023-09-03T18:14:01.014Z,6.63
2023-09-03T18:16:29.011Z,4.28
2023-09-03T18:18:57.002Z,4.55
2023-09-03T18:21:24.962Z,5.10
2023-09-03T18:23:54.908Z,4.70
2023-09-03T18:26:23.886Z,4.65
2023-09-03T18:28:52.005Z,4.65
2023-09-03T18:31:20.031Z,5.05
2023-09-03T18:33:48.075Z,4.30
2023-09-03T18:36:17.282Z,4.68
2023-09-03T18:38:47.173Z,5.35
2023-09-03T18:41:16.956Z,5.43
2023-09-03T18:43:46.401Z,5.45
2023-09-03T18:46:15.020Z,7.40
2023-09-03T18:48:43.117Z,5.20
2023-09-03T18:51:11.051Z,5.70
2023-09-03T18:53:39.035Z,4.82
2023-09-03T18:56:07.369Z,5.50
2023-09-03T18:58:36.772Z,5.10
2023-09-03T19:01:08.703Z,4.85
2023-09-03T19:03:37.163Z,5.00
2023-09-03T19:06:07.351Z,6.50
2023-09-03T19:08:35.675Z,6.47
2023-09-03T19:11:03.786Z,5.28
2023-09-03T19:13:31.933Z,6.25
2023-09-03T19:16:02.139Z,6.55
2023-09-03T19:18:30.321Z,6.75
2023-09-03T19:20:58.370Z,5.75
2023-09-03T19:23:26.607Z,5.95
2023-09-03T19:25:54.730Z,6.00
2023-09-03T19:28:23.312Z,6.55
2023-09-03T19:30:53.012Z,5.80
2023-09-03T19:33:22.839Z,5.85
2023-09-03T19:35:57.813Z,8.00
2023-09-03T19:38:26.735Z,7.68
2023-09-03T19:40:54.818Z,12.60
2023-09-03T19:43:24.044Z,7.70
2023-09-03T19:45:56.399Z,6.20
2023-09-03T19:48:27.069Z,6.55
2023-09-03T19:50:55.542Z,7.40
2023-09-03T19:53:23.469Z,6.88
2023-09-03T19:55:51.872Z,6.18
2023-09-03T19:58:20.691Z,7.05
2023-09-03T20:00:50.463Z,6.35
2023-09-03T20:03:18.596Z,6.90
2023-09-03T20:05:57.365Z,6.55
2023-09-03T20:08:25.483Z,6.60
2023-09-03T20:10:53.471Z,6.13
2023-09-03T20:13:21.546Z,6.57
2023-09-03T20:15:56.152Z,6.22
2023-09-03T20:18:24.489Z,6.93
2023-09-03T20:20:55.067Z,6.30
2023-09-03T20:23:23.788Z,6.50
2023-09-03T20:26:02.863Z,7.03
2023-09-03T20:28:44.094Z,7.10
2023-09-03T20:31:15.555Z,7.22
2023-09-03T20:33:44.144Z,7.40
2023-09-03T20:36:13.623Z,7.35
2023-09-03T20:38:41.799Z,7.88
2023-09-03T20:41:10.569Z,7.57
2023-09-03T20:43:38.609Z,6.85
2023-09-03T20:46:06.621Z,6.78
2023-09-03T20:48:34.724Z,6.57
2023-09-03T20:51:03.736Z,6.57
2023-09-03T20:53:33.149Z,7.05
2023-09-03T20:56:01.152Z,6.20
2023-09-03T20:58:29.236Z,5.32
2023-09-03T21:00:57.273Z,6.60
2023-09-03T21:03:25.283Z,6.95
2023-09-03T21:05:54.505Z,5.75
2023-09-03T21:08:23.294Z,5.68
2023-09-03T21:10:58.847Z,5.15
2023-09-03T21:13:27.492Z,5.88
2023-09-03T21:15:57.084Z,5.55
2023-09-03T21:18:26.044Z,4.75
2023-09-03T21:20:56.414Z,5.63
2023-09-03T21:23:24.595Z,6.10
2023-09-03T21:25:52.673Z,5.43
2023-09-03T21:28:22.218Z,5.40
2023-09-03T21:30:50.518Z,4.68
2023-09-03T21:33:18.518Z,4.43
2023-09-03T21:35:48.262Z,6.50
2023-09-03T21:38:16.371Z,5.22
2023-09-03T21:40:44.337Z,5.20
2023-09-03T21:43:12.397Z,5.40
2023-09-03T21:45:41.761Z,6.68
2023-09-03T21:48:11.507Z,6.82
2023-09-03T21:50:39.823Z,5.32
2023-09-03T21:53:08.015Z,5.13
2023-09-03T21:55:38.372Z,5.80
2023-09-03T21:58:06.804Z,5.85
2023-09-03T22:00:35.026Z,5.10
2023-09-03T22:03:04.729Z,4.40
2023-09-03T22:05:32.742Z,6.22
2023-09-03T22:08:00.698Z,5.90
2023-09-03T22:10:28.937Z,4.90
2023-09-03T22:12:56.935Z,4.95
2023-09-03T22:15:24.894Z,4.88
2023-09-03T22:17:53.964Z,4.75
2023-09-03T22:20:25.117Z,5.18
2023-09-03T22:22:53.328Z,5.70
2023-09-03T22:25:21.305Z,4.72
2023-09-03T22:27:49.270Z,4.28
2023-09-03T22:30:17.273Z,4.75
2023-09-03T22:32:45.320Z,5.03
2023-09-03T22:35:13.541Z,5.13
2023-09-03T22:37:42.818Z,4.35
2023-09-03T22:40:11.633Z,5.70
2023-09-03T22:42:40.033Z,7.03
2023-09-03T22:45:08.869Z,4.28
2023-09-03T22:47:36.920Z,5.28
2023-09-03T22:50:05.454Z,3.55
2023-09-03T22:52:33.446Z,4.32
2023-09-03T22:55:02.962Z,4.93
2023-09-03T22:57:30.974Z,3.58
2023-09-03T22:59:58.937Z,4.13
2023-09-03T23:02:27.716Z,3.78
2023-09-03T23:04:55.698Z,4.15
2023-09-03T23:07:23.740Z,4.95
2023-09-03T23:09:53.202Z,4.30
2023-09-03T23:12:22.932Z,5.53
2023-09-03T23:14:51.297Z,4.10
2023-09-03T23:17:19.124Z,6.22
2023-09-03T23:19:46.975Z,6.18
2023-09-03T23:22:14.850Z,4.30
2023-09-03T23:24:42.735Z,6.03
2023-09-03T23:27:10.551Z,4.40
2023-09-03T23:29:44.332Z,5.45
2023-09-03T23:32:12.247Z,4.47
2023-09-03T23:34:40.110Z,4.68
2023-09-03T23:37:08.061Z,4.38
2023-09-03T23:39:35.852Z,7.32
2023-09-03T23:42:04.183Z,4.28
2023-09-03T23:44:32.101Z,5.68
2023-09-03T23:47:12.486Z,4.25
2023-09-03T23:49:42.282Z,3.75
2023-09-03T23:52:10.185Z,4.60
2023-09-03T23:54:38.050Z,4.35
2023-09-03T23:57:06.337Z,4.70
2023-09-03T23:59:34.198Z,4.70
